Latest Weather Observations for Ivanhoe Airport

IDN60801

Issued at 2:33 pm EDT Saturday 20 December 2014 (issued every 30 minutes, with the page automatically refreshed every 10 minutes)

About weather observations | Map of weather stations | Latest weather observations for NSW | Other Formats
Station Details ID: 049000 Name: IVANHOE AERODROME AWS Lat: -32.88 Lon: 144.31 Height: 100.0 m
Data from the previous 72 hours. | See also: Recent months at Ivanhoe Airport
Date/Time
EDT
Temp
°C
App
Temp
°C
Dew
Point
Rel
Hum
%
Delta-T
°C
Wind Press
QNH
hPa
Press
MSL
hPa
Rain
since 9 am
mm
Dir
 
Spd
km/h
Gust
km/h
Spd
kts
Gust
kts
20/02:30pm 30.1 25.8 3.2 18 13.6 ESE 15 24 8 13 1014.9 1014.4 0.0
20/02:00pm 29.4 25.1 3.4 19 13.2 ESE 15 26 8 14 1015.4 1014.9 0.0
20/01:30pm 29.8 25.2 3.7 19 13.3 SSE 17 30 9 16 1015.6 1015.1 0.0
20/01:00pm 28.9 25.1 3.7 20 12.8 E 13 19 7 10 1016.1 1015.7 0.0
20/12:30pm 28.6 23.8 2.7 19 12.9 SSE 17 26 9 14 1016.8 1016.3 0.0
20/12:00pm 27.3 22.6 3.1 21 12.0 S 17 28 9 15 1017.1 1016.6 0.0
20/11:30am 27.0 22.6 2.8 21 11.9 ESE 15 24 8 13 1017.5 1017.0 0.0
20/11:00am 26.3 22.0 3.5 23 11.3 S 15 24 8 13 1017.7 1017.2 0.0
20/10:30am 25.4 21.0 2.8 23 11.0 SE 15 28 8 15 1017.7 1017.2 0.0
20/10:00am 24.6 20.5 2.1 23 10.8 ESE 13 19 7 10 1017.9 1017.4 0.0
20/09:30am 24.0 19.5 2.2 24 10.4 ESE 15 20 8 11 1018.0 1017.5 0.0
20/09:00am 22.9 18.1 2.4 26 9.7 E 17 20 9 11 1017.9 1017.4 0.0
20/08:30am 22.0 17.9 2.2 27 9.3 ESE 13 19 7 10 1017.8 1017.3 0.0
20/08:00am 20.4 15.4 1.3 28 8.7 ESE 17 22 9 12 1017.7 1017.2 0.0
20/07:30am 18.5 14.1 0.2 29 8.0 ESE 13 17 7 9 1017.2 1016.7 0.0
20/07:00am 16.4 12.2 -0.8 31 7.3 SSE 11 15 6 8 1016.8 1016.3 0.0
20/06:30am 15.2 11.1 -0.5 34 6.6 SSE 11 11 6 6 1016.2 1015.8 0.0
20/05:00am 15.8 12.0 -0.8 32 7.0 SSE 9 11 5 6 1015.5 1015.0 0.0
20/04:30am 16.3 12.5 -0.4 32 7.1 SSE 9 11 5 6 1015.4 1014.9 0.0
20/04:00am 16.4 12.3 -0.3 32 7.1 SSE 11 11 6 6 1015.4 1014.9 0.0
20/03:30am 16.6 12.8 -0.6 31 7.3 S 9 11 5 6 1015.4 1014.9 0.0
20/03:00am 17.1 13.3 -0.6 30 7.6 S 9 11 5 6 1015.5 1015.0 0.0
20/02:30am 17.8 13.7 -0.5 29 7.9 S 11 13 6 7 1015.7 1015.2 0.0
20/02:00am 18.1 14.0 -0.2 29 7.9 S 11 13 6 7 1015.9 1015.4 0.0
20/01:30am 18.0 13.9 -0.3 29 7.9 S 11 13 6 7 1016.2 1015.8 0.0
20/01:00am 18.5 14.8 -0.3 28 8.2 SSW 9 11 5 6 1016.6 1016.1 0.0
20/12:30am 19.2 15.4 -0.7 26 8.6 SSW 9 11 5 6 1016.9 1016.4 0.0
20/12:00am 20.4 15.9 -0.3 25 9.1 S 13 15 7 8 1017.1 1016.6 0.0
 
Date/Time
EDT
Temp
°C
App
Temp
°C
Dew
Point
Rel
Hum
%
Delta-T
°C
Wind Press
QNH
hPa
Press
MSL
hPa
Rain
since 9 am
mm
Dir
 
Spd
km/h
Gust
km/h
Spd
kts
Gust
kts
19/11:30pm 20.9 16.4 -0.4 24 9.5 S 13 15 7 8 1017.1 1016.6 0.0
19/11:00pm 21.2 16.6 -0.7 23 9.7 S 13 15 7 8 1017.1 1016.6 0.0
19/10:30pm 21.5 17.3 -1.1 22 9.9 S 11 13 6 7 1016.9 1016.4 0.0
19/10:00pm 22.4 18.2 -1.0 21 10.4 S 11 17 6 9 1016.6 1016.1 0.0
19/09:30pm 23.1 18.5 -1.1 20 10.8 S 13 17 7 9 1016.2 1015.8 0.0
19/09:00pm 23.9 18.9 -1.1 19 11.2 S 15 20 8 11 1016.1 1015.7 0.0
19/08:30pm 24.5 19.1 -1.3 18 11.6 SSW 17 24 9 13 1016.0 1015.5 0.0
19/08:00pm 25.5 19.4 -2.1 16 12.3 SSW 20 28 11 15 1015.7 1015.2 0.0
19/07:30pm 25.9 19.8 -2.7 15 12.7 SSW 20 32 11 17 1015.5 1015.0 0.0
19/07:00pm 26.6 20.5 -2.1 15 12.9 SSW 20 33 11 18 1015.4 1014.9 0.0
19/06:30pm 26.8 20.4 -2.0 15 13.0 SSW 22 35 12 19 1015.2 1014.7 0.0
19/06:00pm 26.8 20.4 -2.0 15 13.0 SSW 22 35 12 19 1015.0 1014.5 0.0
19/05:30pm 27.3 21.4 -0.7 16 13.0 SSW 20 32 11 17 1014.9 1014.4 0.0
19/05:00pm 26.6 20.0 -0.4 17 12.5 SSW 24 35 13 19 1015.0 1014.5 0.0
19/04:30pm 26.9 20.4 0.6 18 12.5 SSW 24 35 13 19 1015.2 1014.7 0.0
19/04:00pm 26.2 21.5 0.8 19 12.0 SW 15 24 8 13 1015.5 1015.0 0.0
19/03:30pm 26.1 21.1 1.4 20 11.8 SSW 17 33 9 18 1015.7 1015.2 0.0
19/03:00pm 25.3 20.6 0.7 20 11.5 S 15 24 8 13 1015.8 1015.3 0.0
19/02:30pm 25.6 21.0 1.7 21 11.4 SSW 15 24 8 13 1016.1 1015.7 0.0
19/02:00pm 25.2 20.6 1.3 21 11.3 SW 15 26 8 14 1016.3 1015.9 0.0
19/01:30pm 25.0 19.7 1.8 22 11.1 SSW 19 32 10 17 1016.6 1016.1 0.0
19/01:00pm 23.7 18.5 2.5 25 10.2 S 19 30 10 16 1016.8 1016.3 0.0
19/12:30pm 24.2 19.5 2.9 25 10.3 SE 17 30 9 16 1016.9 1016.4 0.0
19/12:00pm 23.5 18.8 2.9 26 9.9 S 17 30 9 16 1017.0 1016.5 0.0
19/11:30am 22.7 17.6 2.8 27 9.5 SSW 19 28 10 15 1017.0 1016.5 0.0
19/11:00am 22.2 17.0 3.3 29 9.1 S 20 32 11 17 1017.1 1016.6 0.0
19/10:30am 21.6 16.5 3.3 30 8.8 S 19 28 10 15 1017.1 1016.6 0.0
19/10:00am 20.9 16.0 4.0 33 8.2 SSE 19 33 10 18 1017.3 1016.8 0.0
19/09:30am 19.4 14.3 4.3 37 7.3 SSE 20 32 11 17 1017.2 1016.7 0.0
19/09:00am 19.0 13.6 4.4 38 7.0 S 22 30 12 16 1017.0 1016.5 0.0
19/08:30am 18.0 12.9 3.9 39 6.7 SSW 20 28 11 15 1016.7 1016.2 0.0
19/08:00am 17.4 11.7 3.0 38 6.6 SSW 22 30 12 16 1016.2 1015.8 0.0
19/07:30am 17.0 11.3 3.0 39 6.4 SSW 22 30 12 16 1015.9 1015.4 0.0
19/07:00am 16.3 12.0 3.0 41 6.1 SW 15 20 8 11 1015.6 1015.1 0.0
19/06:30am 15.8 11.8 2.9 42 5.9 SSW 13 17 7 9 1015.1 1014.6 0.0
19/06:00am 16.0 12.0 3.1 42 5.9 SW 13 19 7 10 1014.9 1014.4 0.0
19/05:30am 16.6 12.3 3.3 41 6.1 SSW 15 19 8 10 1014.7 1014.2 0.0
19/05:00am 17.4 12.8 3.7 40 6.4 SSW 17 22 9 12 1014.3 1013.8 0.0
19/04:30am 17.8 13.5 3.3 38 6.8 SSW 15 20 8 11 1014.0 1013.5 0.0
19/04:00am 18.5 14.3 3.9 38 6.9 SSW 15 20 8 11 1013.7 1013.2 0.0
19/03:30am 18.9 15.2 4.7 39 6.9 SSW 13 19 7 10 1013.2 1012.7 0.0
19/03:00am 19.7 16.2 5.4 39 7.0 S 13 20 7 11 1012.9 1012.4 0.0
19/02:30am 20.2 16.1 6.2 40 7.0 S 17 24 9 13 1012.8 1012.3 0.0
19/02:00am 20.9 16.6 7.2 41 7.0 S 19 30 10 16 1012.8 1012.3 0.0
19/01:30am 21.0 16.8 7.3 41 7.1 S 19 26 10 14 1012.8 1012.3 0.0
19/01:00am 21.3 16.5 7.2 40 7.3 S 22 33 12 18 1012.6 1012.1 0.0
19/12:30am 22.0 17.1 6.7 37 7.8 SSW 22 37 12 20 1012.5 1012.0 0.0
19/12:00am 22.9 16.7 6.2 34 8.5 SSW 28 46 15 25 1012.1 1011.6 0.0
 
Date/Time
EDT
Temp
°C
App
Temp
°C
Dew
Point
Rel
Hum
%
Delta-T
°C
Wind Press
QNH
hPa
Press
MSL
hPa
Rain
since 9 am
mm
Dir
 
Spd
km/h
Gust
km/h
Spd
kts
Gust
kts
18/11:30pm 23.8 19.3 4.2 28 9.7 SSW 17 20 9 11 1011.7 1011.2 0.0
18/11:00pm 24.4 19.8 3.7 26 10.2 SSW 17 24 9 13 1011.4 1010.9 0.0
18/10:30pm 25.2 20.0 2.6 23 11.0 SSW 19 26 10 14 1011.2 1010.7 0.0
18/10:00pm 25.8 20.6 2.5 22 11.4 SW 19 26 10 14 1011.0 1010.5 0.0
18/09:30pm 26.4 21.1 3.0 22 11.5 SW 20 33 11 18 1010.5 1010.0 0.0
18/09:00pm 27.2 21.8 2.3 20 12.2 SW 20 30 11 16 1010.0 1009.5 0.0
18/08:30pm 27.9 21.3 2.2 19 12.6 SW 26 39 14 21 1009.7 1009.2 0.0
18/08:00pm 28.9 21.0 2.2 18 13.2 SW 33 44 18 24 1009.1 1008.6 0.0
18/07:30pm 30.2 22.6 0.7 15 14.3 SW 30 43 16 23 1008.5 1008.0 0.0
18/07:00pm 31.0 22.7 -0.6 13 15.1 WSW 33 48 18 26 1007.8 1007.3 0.0
18/06:48pm 31.6 24.1 -1.2 12 15.6 WSW 28 54 15 29 1007.5 1007.0 0.0
18/06:30pm 32.3 24.2 -3.2 10 16.4 WSW 30 44 16 24 1007.3 1006.7 0.0
18/06:00pm 32.9 25.1 -4.1 9 16.9 WSW 28 46 15 25 1006.8 1006.2 0.0
18/05:30pm 32.9 24.3 -4.1 9 16.9 W 32 43 17 23 1006.6 1006.0 0.0
18/05:19pm 33.2 24.8 -5.5 8 17.3 W 30 48 16 26 1006.7 1006.1 0.0
18/05:00pm 33.1 24.5 -4.0 9 17.0 W 32 48 17 26 1006.6 1006.0 0.0
18/04:34pm 33.6 24.7 -5.2 8 17.5 W 33 52 18 28 1006.7 1006.1 0.0
18/04:30pm 33.3 23.6 -5.4 8 17.4 W 37 52 20 28 1006.7 1006.1 0.0
18/04:04pm 34.2 26.5 -3.2 9 17.5 WSW 28 46 15 25 1006.7 1006.1 0.0
18/04:00pm 33.5 25.0 -3.7 9 17.2 WSW 32 46 17 25 1006.8 1006.2 0.0
18/03:37pm 33.3 24.7 -3.8 9 17.1 WNW 32 50 17 27 1006.8 1006.2 0.0
18/03:30pm 33.8 25.1 -3.5 9 17.3 W 33 48 18 26 1006.8 1006.2 0.0
18/03:12pm 33.9 26.1 -3.4 9 17.4 W 28 52 15 28 1006.9 1006.3 0.0
18/03:00pm 33.0 25.3 -2.6 10 16.7 WSW 28 52 15 28 1006.9 1006.3 0.0
18/02:45pm 33.5 25.9 -2.3 10 16.9 WNW 28 50 15 27 1007.0 1006.4 0.0
18/02:30pm 34.0 26.8 -1.9 10 17.1 W 26 43 14 23 1007.2 1006.6 0.0
18/02:00pm 32.9 26.2 -1.4 11 16.4 WSW 24 41 13 22 1007.4 1006.9 0.0
18/01:30pm 32.5 26.5 -1.7 11 16.2 W 20 37 11 20 1007.6 1007.1 0.0
18/01:00pm 32.0 25.2 -2.1 11 16.0 W 24 35 13 19 1007.8 1007.3 0.0
18/12:40pm 32.4 24.8 -1.8 11 16.2 WNW 28 48 15 26 1007.6 1007.1 0.0
18/12:30pm 31.2 24.7 -2.7 11 15.7 WNW 22 37 12 20 1007.8 1007.3 0.0
18/12:00pm 30.9 25.4 -1.8 12 15.3 WNW 17 30 9 16 1008.1 1007.6 0.0
18/11:30am 30.2 24.8 -1.2 13 14.8 WNW 17 26 9 14 1008.3 1007.8 0.0
18/11:00am 30.1 25.2 -0.3 14 14.5 NW 15 22 8 12 1008.2 1007.7 0.0
18/10:30am 28.1 24.3 -0.9 15 13.5 WSW 9 17 5 9 1008.5 1008.0 0.0
18/10:00am 27.7 24.2 -3.2 13 13.8 NE 6 11 3 6 1008.5 1008.0 0.0
18/09:30am 26.3 22.6 -3.3 14 13.0 NNE 7 17 4 9 1008.4 1007.9 0.0
18/09:00am 25.2 20.7 -3.2 15 12.4 NE 11 15 6 8 1008.6 1008.1 0.0
18/08:30am 23.5 19.4 -2.9 17 11.4 NE 9 11 5 6 1008.5 1008.0 0.0
18/08:00am 21.7 17.6 -2.9 19 10.5 NE 9 11 5 6 1008.2 1007.7 0.0
18/07:30am 20.3 16.8 -2.7 21 9.7 SSE 6 7 3 4 1007.9 1007.4 0.0
18/07:00am 18.1 14.4 -2.8 24 8.6 SSE 7 9 4 5 1007.6 1007.1 0.0
18/06:30am 16.1 12.0 -2.9 27 7.7 SSE 9 11 5 6 1007.2 1006.6 0.0
18/06:00am 15.9 11.4 -3.1 27 7.6 SSE 11 11 6 6 1006.9 1006.3 0.0
18/05:30am 16.4 11.9 -3.1 26 7.8 S 11 13 6 7 1006.5 1005.9 0.0
18/05:00am 16.9 12.8 -2.7 26 8.0 S 9 11 5 6 1006.5 1005.9 0.0
18/04:30am 15.6 11.8 -3.8 26 7.6 SSW 7 9 4 5 1006.6 1006.0 0.0
18/04:00am 16.2 11.3 -3.8 25 7.9 SSW 13 15 7 8 1006.2 1005.6 0.0
18/03:30am 16.5 12.0 -3.6 25 8.0 SW 11 15 6 8 1005.8 1005.3 0.0
18/03:00am 17.2 13.0 -3.5 24 8.4 SW 9 11 5 6 1005.8 1005.3 0.0
18/02:30am 17.5 13.4 -3.3 24 8.4 SW 9 11 5 6 1005.8 1005.3 0.0
18/02:00am 17.2 13.9 -4.1 23 8.5 SSE 4 6 2 3 1006.2 1005.6 0.0
18/01:30am 18.0 14.7 -4.0 22 8.8 SSE 4 6 2 3 1006.4 1005.8 0.0
18/01:00am 18.7 15.1 -4.0 21 9.2 SSW 6 9 3 5 1006.2 1005.6 0.0
18/12:30am 19.3 15.5 -3.5 21 9.4 S 7 9 4 5 1006.6 1006.0 0.0
18/12:00am 20.3 16.2 -3.4 20 9.9 SSE 9 11 5 6 1006.7 1006.1 0.0
 
Date/Time
EDT
Temp
°C
App
Temp
°C
Dew
Point
Rel
Hum
%
Delta-T
°C
Wind Press
QNH
hPa
Press
MSL
hPa
Rain
since 9 am
mm
Dir
 
Spd
km/h
Gust
km/h
Spd
kts
Gust
kts
17/11:30pm 20.8 17.0 -3.6 19 10.1 S 7 9 4 5 1007.0 1006.4 0.0
17/11:00pm 21.5 17.3 -3.8 18 10.6 SE 9 11 5 6 1006.4 1005.8 0.0
17/10:30pm 22.2 17.7 -3.2 18 10.8 SE 11 13 6 7 1006.3 1005.7 0.0
17/10:00pm 23.3 19.2 -3.1 17 11.4 SSE 9 11 5 6 1006.5 1005.9 0.0
17/09:30pm 23.6 19.5 -2.8 17 11.4 SSE 9 11 5 6 1006.3 1005.7 0.0
17/09:00pm 24.1 20.4 -3.3 16 11.9 S 7 9 4 5 1006.3 1005.7 0.0
17/08:30pm 25.9 21.7 -3.6 14 12.8 S 9 13 5 7 1006.4 1005.8 0.0
17/08:00pm 27.5 22.9 -4.4 12 13.9 SW 11 17 6 9 1005.9 1005.4 0.0
17/07:30pm 28.1 23.5 -3.9 12 14.1 SSW 11 19 6 10 1005.7 1005.2 0.0
17/07:00pm 28.6 24.8 -3.6 12 14.4 S 7 13 4 7 1005.4 1004.9 0.0
17/06:30pm 28.7 24.2 -3.5 12 14.4 WSW 11 19 6 10 1005.1 1004.6 0.0
17/06:00pm 28.9 24.0 -3.3 12 14.5 S 13 22 7 12 1005.2 1004.7 0.0
17/05:30pm 28.4 23.5 -3.7 12 14.2 SSW 13 26 7 14 1005.4 1004.9 0.0
17/05:00pm 28.8 23.7 -2.3 13 14.2 SW 15 24 8 13 1005.5 1005.0 0.0
17/04:30pm 27.7 24.0 -3.2 13 13.8 S 7 15 4 8 1005.7 1005.2 0.0
17/04:00pm 27.7 22.4 -3.2 13 13.8 SSW 15 26 8 14 1006.3 1005.7 0.0
17/03:30pm 26.6 21.0 -3.1 14 13.1 S 17 28 9 15 1006.4 1005.8 0.0
17/03:00pm 27.2 22.5 -1.7 15 13.2 SW 13 26 7 14 1006.7 1006.1 0.0

Other Formats:

Comma delimited format used in spreadsheet applications
http://www.bom.gov.au/fwo/IDN60801/IDN60801.95697.axf

JavaScript Object Notation format (JSON) in row-major order
http://www.bom.gov.au/fwo/IDN60801/IDN60801.95697.json